Cheviot, Ohio
Current Conditions -  °F | °C
As of 7:58 PM on Monday 24 Nov 2014 (Local Time) from KI69 Reporting Station
Overcast Overcast  
Wind Chill: 41°   Ceiling: 5000
Heat Index: 45°   Visibility: 10mi
Dew Point: 34°   Wind: 7mph
Humidity: 66%   Direction: 250°WSW
Pressure: 29.85"   Gusts: NA
Location:  39.1585°N, 84.5998°W
Report Text: KI69 250058Z AUTO 25006KT 10SM SCT033 OVC050 07/01 A2985 RMK AO1
Loading
Personal Weather Stations






























Interactive Weather Map New forecast layout! Learn more

10-Day Weather Forecast

Advertisements
Track Severe Weather on mobile